sensor_id;sensor_type;location;lat;lon;timestamp;temperature;humidity
28845;DHT22;15976;47.938;7.758;2023-04-01T00:00:59;9.40;84.70
28845;DHT22;15976;47.938;7.758;2023-04-01T00:03:28;9.30;86.20
28845;DHT22;15976;47.938;7.758;2023-04-01T00:06:00;9.10;87.40
28845;DHT22;15976;47.938;7.758;2023-04-01T00:08:28;9.10;88.60
28845;DHT22;15976;47.938;7.758;2023-04-01T00:10:55;9.10;89.50
28845;DHT22;15976;47.938;7.758;2023-04-01T00:13:25;9.10;90.00
28845;DHT22;15976;47.938;7.758;2023-04-01T00:15:54;9.10;90.00
28845;DHT22;15976;47.938;7.758;2023-04-01T00:18:23;9.00;90.40
28845;DHT22;15976;47.938;7.758;2023-04-01T00:20:51;9.00;90.60
28845;DHT22;15976;47.938;7.758;2023-04-01T00:23:19;8.90;91.00
28845;DHT22;15976;47.938;7.758;2023-04-01T00:25:47;8.90;91.10
28845;DHT22;15976;47.938;7.758;2023-04-01T00:28:19;8.90;91.30
28845;DHT22;15976;47.938;7.758;2023-04-01T00:30:48;8.80;91.60
28845;DHT22;15976;47.938;7.758;2023-04-01T00:33:15;8.80;91.90
28845;DHT22;15976;47.938;7.758;2023-04-01T00:35:44;8.80;92.20
28845;DHT22;15976;47.938;7.758;2023-04-01T00:38:11;8.80;92.20
28845;DHT22;15976;47.938;7.758;2023-04-01T00:40:41;8.70;92.60
28845;DHT22;15976;47.938;7.758;2023-04-01T00:43:17;8.70;92.80
28845;DHT22;15976;47.938;7.758;2023-04-01T00:45:48;8.80;93.10
28845;DHT22;15976;47.938;7.758;2023-04-01T00:48:17;8.80;93.30
28845;DHT22;15976;47.938;7.758;2023-04-01T00:50:49;8.80;93.40
28845;DHT22;15976;47.938;7.758;2023-04-01T00:53:21;8.80;93.40
28845;DHT22;15976;47.938;7.758;2023-04-01T00:56:13;8.80;93.50
28845;DHT22;15976;47.938;7.758;2023-04-01T00:58:43;8.80;93.70
28845;DHT22;15976;47.938;7.758;2023-04-01T01:01:10;8.80;93.80
28845;DHT22;15976;47.938;7.758;2023-04-01T01:03:38;8.80;93.90
28845;DHT22;15976;47.938;7.758;2023-04-01T01:11:50;8.80;94.20
28845;DHT22;15976;47.938;7.758;2023-04-01T01:34:28;8.90;95.10
28845;DHT22;15976;47.938;7.758;2023-04-01T01:37:03;8.90;95.20
28845;DHT22;15976;47.938;7.758;2023-04-01T01:39:34;8.90;95.20
28845;DHT22;15976;47.938;7.758;2023-04-01T01:42:09;8.90;95.40
28845;DHT22;15976;47.938;7.758;2023-04-01T01:44:38;8.90;95.40
28845;DHT22;15976;47.938;7.758;2023-04-01T01:47:06;8.90;95.30
28845;DHT22;15976;47.938;7.758;2023-04-01T01:49:34;8.80;95.40
28845;DHT22;15976;47.938;7.758;2023-04-01T01:52:02;8.80;95.40
28845;DHT22;15976;47.938;7.758;2023-04-01T01:54:30;8.80;95.50
28845;DHT22;15976;47.938;7.758;2023-04-01T01:57:11;8.80;95.50
28845;DHT22;15976;47.938;7.758;2023-04-01T01:59:44;8.80;95.50
28845;DHT22;15976;47.938;7.758;2023-04-01T02:02:22;8.80;95.50
28845;DHT22;15976;47.938;7.758;2023-04-01T02:04:50;8.80;95.50
28845;DHT22;15976;47.938;7.758;2023-04-01T02:07:25;8.80;96.00
28845;DHT22;15976;47.938;7.758;2023-04-01T02:09:53;8.80;95.60
28845;DHT22;15976;47.938;7.758;2023-04-01T02:12:22;8.80;95.60
28845;DHT22;15976;47.938;7.758;2023-04-01T02:14:57;8.80;95.70
28845;DHT22;15976;47.938;7.758;2023-04-01T02:17:27;8.80;95.70
28845;DHT22;15976;47.938;7.758;2023-04-01T02:20:02;8.70;95.80
28845;DHT22;15976;47.938;7.758;2023-04-01T02:22:38;8.80;95.80
28845;DHT22;15976;47.938;7.758;2023-04-01T02:25:12;8.80;95.80
28845;DHT22;15976;47.938;7.758;2023-04-01T02:27:42;8.80;96.00
28845;DHT22;15976;47.938;7.758;2023-04-01T02:30:12;8.90;96.10
28845;DHT22;15976;47.938;7.758;2023-04-01T02:32:39;8.90;96.10
28845;DHT22;15976;47.938;7.758;2023-04-01T02:35:11;8.90;96.10
28845;DHT22;15976;47.938;7.758;2023-04-01T02:37:40;9.00;96.10
28845;DHT22;15976;47.938;7.758;2023-04-01T02:40:12;9.00;96.20
28845;DHT22;15976;47.938;7.758;2023-04-01T02:42:40;8.90;96.10
28845;DHT22;15976;47.938;7.758;2023-04-01T02:45:08;8.90;96.00
28845;DHT22;15976;47.938;7.758;2023-04-01T02:47:35;8.90;96.20
28845;DHT22;15976;47.938;7.758;2023-04-01T02:50:03;8.90;96.40
28845;DHT22;15976;47.938;7.758;2023-04-01T02:52:32;8.90;96.40
28845;DHT22;15976;47.938;7.758;2023-04-01T02:55:01;8.90;96.40
28845;DHT22;15976;47.938;7.758;2023-04-01T02:57:29;8.90;96.50
28845;DHT22;15976;47.938;7.758;2023-04-01T02:59:57;8.90;96.50
28845;DHT22;15976;47.938;7.758;2023-04-01T03:02:24;9.00;96.50
28845;DHT22;15976;47.938;7.758;2023-04-01T03:04:51;9.00;96.50
28845;DHT22;15976;47.938;7.758;2023-04-01T03:07:18;8.90;96.50
28845;DHT22;15976;47.938;7.758;2023-04-01T03:09:45;9.00;96.70
28845;DHT22;15976;47.938;7.758;2023-04-01T03:12:12;8.90;96.60
28845;DHT22;15976;47.938;7.758;2023-04-01T03:14:48;9.00;96.60
28845;DHT22;15976;47.938;7.758;2023-04-01T03:17:16;8.90;96.70
28845;DHT22;15976;47.938;7.758;2023-04-01T03:19:43;8.90;96.40
28845;DHT22;15976;47.938;7.758;2023-04-01T03:22:11;8.80;96.30
28845;DHT22;15976;47.938;7.758;2023-04-01T03:24:38;8.70;96.50
28845;DHT22;15976;47.938;7.758;2023-04-01T03:27:05;8.60;96.30
28845;DHT22;15976;47.938;7.758;2023-04-01T03:29:32;8.50;96.40
28845;DHT22;15976;47.938;7.758;2023-04-01T03:31:59;8.50;96.40
28845;DHT22;15976;47.938;7.758;2023-04-01T03:34:26;8.50;96.50
28845;DHT22;15976;47.938;7.758;2023-04-01T03:36:53;8.50;96.50
28845;DHT22;15976;47.938;7.758;2023-04-01T03:39:21;8.40;96.40
28845;DHT22;15976;47.938;7.758;2023-04-01T03:41:49;8.40;96.50
28845;DHT22;15976;47.938;7.758;2023-04-01T03:44:19;8.40;96.60
28845;DHT22;15976;47.938;7.758;2023-04-01T03:46:50;8.30;96.70
28845;DHT22;15976;47.938;7.758;2023-04-01T03:49:17;8.40;96.70
28845;DHT22;15976;47.938;7.758;2023-04-01T03:51:44;8.30;96.60
28845;DHT22;15976;47.938;7.758;2023-04-01T03:54:12;8.30;96.70
28845;DHT22;15976;47.938;7.758;2023-04-01T03:56:39;8.30;96.60
28845;DHT22;15976;47.938;7.758;2023-04-01T03:59:08;8.30;96.50
28845;DHT22;15976;47.938;7.758;2023-04-01T04:01:35;8.20;96.60
28845;DHT22;15976;47.938;7.758;2023-04-01T04:04:02;8.20;96.70
28845;DHT22;15976;47.938;7.758;2023-04-01T04:06:30;8.20;96.80
28845;DHT22;15976;47.938;7.758;2023-04-01T04:08:57;8.20;96.90
28845;DHT22;15976;47.938;7.758;2023-04-01T04:11:25;8.20;96.90
28845;DHT22;15976;47.938;7.758;2023-04-01T04:13:52;8.20;96.90
28845;DHT22;15976;47.938;7.758;2023-04-01T04:16:22;8.20;96.80
28845;DHT22;15976;47.938;7.758;2023-04-01T04:18:55;8.20;96.80
28845;DHT22;15976;47.938;7.758;2023-04-01T04:21:22;8.20;96.90
28845;DHT22;15976;47.938;7.758;2023-04-01T04:23:52;8.30;97.00
28845;DHT22;15976;47.938;7.758;2023-04-01T04:26:20;8.30;96.90
28845;DHT22;15976;47.938;7.758;2023-04-01T04:28:55;8.20;96.90
28845;DHT22;15976;47.938;7.758;2023-04-01T04:31:24;8.30;97.00
28845;DHT22;15976;47.938;7.758;2023-04-01T04:33:54;8.30;97.00
28845;DHT22;15976;47.938;7.758;2023-04-01T04:36:21;8.30;97.00
28845;DHT22;15976;47.938;7.758;2023-04-01T04:38:50;8.30;97.00
28845;DHT22;15976;47.938;7.758;2023-04-01T04:41:19;8.30;97.00
28845;DHT22;15976;47.938;7.758;2023-04-01T04:43:55;8.30;97.10
28845;DHT22;15976;47.938;7.758;2023-04-01T04:46:24;8.40;97.10
28845;DHT22;15976;47.938;7.758;2023-04-01T04:49:03;8.30;97.20
28845;DHT22;15976;47.938;7.758;2023-04-01T04:51:30;8.40;97.20
28845;DHT22;15976;47.938;7.758;2023-04-01T04:54:00;8.40;97.20
28845;DHT22;15976;47.938;7.758;2023-04-01T04:56:40;8.30;97.50
28845;DHT22;15976;47.938;7.758;2023-04-01T04:59:09;8.30;97.20
28845;DHT22;15976;47.938;7.758;2023-04-01T05:01:45;8.30;97.20
28845;DHT22;15976;47.938;7.758;2023-04-01T05:04:13;8.30;97.30
28845;DHT22;15976;47.938;7.758;2023-04-01T05:06:42;8.40;97.30
28845;DHT22;15976;47.938;7.758;2023-04-01T05:09:09;8.30;97.30
28845;DHT22;15976;47.938;7.758;2023-04-01T05:11:36;8.30;97.30
28845;DHT22;15976;47.938;7.758;2023-04-01T05:14:03;8.40;97.30
28845;DHT22;15976;47.938;7.758;2023-04-01T05:16:31;8.30;97.20
28845;DHT22;15976;47.938;7.758;2023-04-01T05:18:59;8.20;97.20
28845;DHT22;15976;47.938;7.758;2023-04-01T05:21:26;8.30;97.30
28845;DHT22;15976;47.938;7.758;2023-04-01T05:23:55;8.30;97.30
28845;DHT22;15976;47.938;7.758;2023-04-01T05:26:24;8.30;97.30
28845;DHT22;15976;47.938;7.758;2023-04-01T05:28:51;8.30;97.40
28845;DHT22;15976;47.938;7.758;2023-04-01T05:31:18;8.30;97.40
28845;DHT22;15976;47.938;7.758;2023-04-01T05:33:47;8.30;97.30
28845;DHT22;15976;47.938;7.758;2023-04-01T05:36:16;8.30;97.40
28845;DHT22;15976;47.938;7.758;2023-04-01T05:38:43;8.30;97.40
28845;DHT22;15976;47.938;7.758;2023-04-01T05:41:14;8.30;97.40
28845;DHT22;15976;47.938;7.758;2023-04-01T05:43:44;8.30;97.40
28845;DHT22;15976;47.938;7.758;2023-04-01T05:46:30;8.40;97.50
28845;DHT22;15976;47.938;7.758;2023-04-01T05:49:18;8.40;97.40
28845;DHT22;15976;47.938;7.758;2023-04-01T05:51:45;8.50;97.50
28845;DHT22;15976;47.938;7.758;2023-04-01T05:54:12;8.50;97.40
28845;DHT22;15976;47.938;7.758;2023-04-01T05:56:40;8.50;97.40
28845;DHT22;15976;47.938;7.758;2023-04-01T05:59:10;8.50;97.40
28845;DHT22;15976;47.938;7.758;2023-04-01T06:01:37;8.50;97.30
28845;DHT22;15976;47.938;7.758;2023-04-01T06:04:04;8.50;97.20
28845;DHT22;15976;47.938;7.758;2023-04-01T06:06:32;8.50;97.20
28845;DHT22;15976;47.938;7.758;2023-04-01T06:09:19;8.50;97.20
28845;DHT22;15976;47.938;7.758;2023-04-01T06:12:18;8.50;97.20
28845;DHT22;15976;47.938;7.758;2023-04-01T06:37:00;8.80;97.00
28845;DHT22;15976;47.938;7.758;2023-04-01T06:46:14;9.00;96.80
28845;DHT22;15976;47.938;7.758;2023-04-01T06:58:23;9.40;95.40
28845;DHT22;15976;47.938;7.758;2023-04-01T07:01:04;9.50;95.30
28845;DHT22;15976;47.938;7.758;2023-04-01T07:03:41;9.50;95.10
28845;DHT22;15976;47.938;7.758;2023-04-01T07:06:30;9.60;95.00
28845;DHT22;15976;47.938;7.758;2023-04-01T07:09:02;9.60;94.70
28845;DHT22;15976;47.938;7.758;2023-04-01T07:11:53;9.70;94.40
28845;DHT22;15976;47.938;7.758;2023-04-01T07:14:50;9.70;94.00
28845;DHT22;15976;47.938;7.758;2023-04-01T07:17:23;9.80;93.90
28845;DHT22;15976;47.938;7.758;2023-04-01T07:22:58;9.90;93.70
28845;DHT22;15976;47.938;7.758;2023-04-01T07:25:44;9.90;93.50
28845;DHT22;15976;47.938;7.758;2023-04-01T07:28:32;10.00;93.30
28845;DHT22;15976;47.938;7.758;2023-04-01T07:34:26;10.10;93.10
28845;DHT22;15976;47.938;7.758;2023-04-01T07:48:42;10.10;92.70
28845;DHT22;15976;47.938;7.758;2023-04-01T08:00:22;10.20;92.30
28845;DHT22;15976;47.938;7.758;2023-04-01T08:03:31;10.30;92.20
28845;DHT22;15976;47.938;7.758;2023-04-01T08:06:37;10.30;92.10
28845;DHT22;15976;47.938;7.758;2023-04-01T08:21:03;10.40;91.90
28845;DHT22;15976;47.938;7.758;2023-04-01T08:23:46;10.40;91.80
28845;DHT22;15976;47.938;7.758;2023-04-01T08:29:19;10.40;91.60
28845;DHT22;15976;47.938;7.758;2023-04-01T08:32:00;10.40;91.40
28845;DHT22;15976;47.938;7.758;2023-04-01T08:34:37;10.40;91.50
28845;DHT22;15976;47.938;7.758;2023-04-01T08:37:16;10.40;91.40
28845;DHT22;15976;47.938;7.758;2023-04-01T08:39:57;10.50;91.40
28845;DHT22;15976;47.938;7.758;2023-04-01T08:46:02;10.60;90.60
28845;DHT22;15976;47.938;7.758;2023-04-01T09:04:25;10.90;90.60
28845;DHT22;15976;47.938;7.758;2023-04-01T09:10:35;10.90;90.40
28845;DHT22;15976;47.938;7.758;2023-04-01T09:28:18;11.10;85.00
28845;DHT22;15976;47.938;7.758;2023-04-01T09:42:35;11.30;81.20
28845;DHT22;15976;47.938;7.758;2023-04-01T09:45:47;11.30;80.60
28845;DHT22;15976;47.938;7.758;2023-04-01T10:08:24;11.40;77.50
28845;DHT22;15976;47.938;7.758;2023-04-01T10:11:21;11.50;77.40
28845;DHT22;15976;47.938;7.758;2023-04-01T10:17:17;11.50;75.80
28845;DHT22;15976;47.938;7.758;2023-04-01T10:23:01;11.40;75.40
28845;DHT22;15976;47.938;7.758;2023-04-01T10:36:51;11.60;75.30
28845;DHT22;15976;47.938;7.758;2023-04-01T10:51:13;11.60;74.40
28845;DHT22;15976;47.938;7.758;2023-04-01T11:01:10;11.60;73.90
28845;DHT22;15976;47.938;7.758;2023-04-01T11:26:00;11.60;73.40
28845;DHT22;15976;47.938;7.758;2023-04-01T11:29:18;11.60;73.60
28845;DHT22;15976;47.938;7.758;2023-04-01T11:47:52;11.70;73.70
28845;DHT22;15976;47.938;7.758;2023-04-01T12:03:48;11.80;73.30
28845;DHT22;15976;47.938;7.758;2023-04-01T12:09:12;12.00;73.10
28845;DHT22;15976;47.938;7.758;2023-04-01T12:12:36;12.00;72.90
28845;DHT22;15976;47.938;7.758;2023-04-01T12:17:36;12.10;72.80
28845;DHT22;15976;47.938;7.758;2023-04-01T12:44:12;12.30;72.40
28845;DHT22;15976;47.938;7.758;2023-04-01T12:49:49;12.30;72.10
28845;DHT22;15976;47.938;7.758;2023-04-01T12:55:56;12.40;72.30
28845;DHT22;15976;47.938;7.758;2023-04-01T13:04:28;12.40;72.80
28845;DHT22;15976;47.938;7.758;2023-04-01T13:07:09;12.40;72.70
28845;DHT22;15976;47.938;7.758;2023-04-01T13:09:50;12.50;72.50
28845;DHT22;15976;47.938;7.758;2023-04-01T13:20:55;12.70;71.30
28845;DHT22;15976;47.938;7.758;2023-04-01T13:29:13;12.80;70.50
28845;DHT22;15976;47.938;7.758;2023-04-01T13:34:52;12.80;70.00
28845;DHT22;15976;47.938;7.758;2023-04-01T13:40:04;13.00;70.00
28845;DHT22;15976;47.938;7.758;2023-04-01T13:42:43;13.00;69.70
28845;DHT22;15976;47.938;7.758;2023-04-01T13:45:23;13.10;69.80
28845;DHT22;15976;47.938;7.758;2023-04-01T13:56:42;13.80;68.40
28845;DHT22;15976;47.938;7.758;2023-04-01T14:05:48;14.70;65.60
28845;DHT22;15976;47.938;7.758;2023-04-01T14:25:46;14.30;62.10
28845;DHT22;15976;47.938;7.758;2023-04-01T14:31:17;12.80;69.70
28845;DHT22;15976;47.938;7.758;2023-04-01T14:34:11;11.90;76.00
28845;DHT22;15976;47.938;7.758;2023-04-01T14:42:18;11.20;89.00
28845;DHT22;15976;47.938;7.758;2023-04-01T14:45:33;11.40;90.20
28845;DHT22;15976;47.938;7.758;2023-04-01T14:48:04;11.70;90.90
28845;DHT22;15976;47.938;7.758;2023-04-01T14:50:45;12.10;91.10
28845;DHT22;15976;47.938;7.758;2023-04-01T14:55:57;12.90;90.80
28845;DHT22;15976;47.938;7.758;2023-04-01T14:58:31;13.10;90.80
28845;DHT22;15976;47.938;7.758;2023-04-01T15:03:39;13.10;90.90
28845;DHT22;15976;47.938;7.758;2023-04-01T15:12:11;12.60;90.80
28845;DHT22;15976;47.938;7.758;2023-04-01T15:23:02;12.30;91.50
28845;DHT22;15976;47.938;7.758;2023-04-01T15:31:09;11.90;91.50
28845;DHT22;15976;47.938;7.758;2023-04-01T15:34:07;11.70;91.70
28845;DHT22;15976;47.938;7.758;2023-04-01T15:39:29;11.50;91.90
28845;DHT22;15976;47.938;7.758;2023-04-01T15:42:14;11.40;92.00
28845;DHT22;15976;47.938;7.758;2023-04-01T15:44:55;11.30;92.10
28845;DHT22;15976;47.938;7.758;2023-04-01T15:58:37;11.20;92.30
28845;DHT22;15976;47.938;7.758;2023-04-01T16:01:11;11.30;92.30
28845;DHT22;15976;47.938;7.758;2023-04-01T16:07:39;11.40;92.40
28845;DHT22;15976;47.938;7.758;2023-04-01T16:10:09;11.40;92.30
28845;DHT22;15976;47.938;7.758;2023-04-01T16:15:53;11.40;92.40
28845;DHT22;15976;47.938;7.758;2023-04-01T16:29:55;11.50;92.50
28845;DHT22;15976;47.938;7.758;2023-04-01T16:32:31;11.60;92.40
28845;DHT22;15976;47.938;7.758;2023-04-01T16:38:36;11.80;92.70
28845;DHT22;15976;47.938;7.758;2023-04-01T16:41:17;11.90;92.60
28845;DHT22;15976;47.938;7.758;2023-04-01T16:43:49;12.10;92.30
28845;DHT22;15976;47.938;7.758;2023-04-01T16:46:28;12.10;91.90
28845;DHT22;15976;47.938;7.758;2023-04-01T16:50:06;12.20;91.70
28845;DHT22;15976;47.938;7.758;2023-04-01T16:54:58;12.30;91.10
28845;DHT22;15976;47.938;7.758;2023-04-01T17:00:40;12.30;90.60
28845;DHT22;15976;47.938;7.758;2023-04-01T17:19:42;12.10;90.40
28845;DHT22;15976;47.938;7.758;2023-04-01T17:22:35;12.10;90.50
28845;DHT22;15976;47.938;7.758;2023-04-01T17:25:30;12.10;90.20
28845;DHT22;15976;47.938;7.758;2023-04-01T17:30:43;12.10;89.80
28845;DHT22;15976;47.938;7.758;2023-04-01T17:49:25;11.60;90.00
28845;DHT22;15976;47.938;7.758;2023-04-01T18:00:47;11.20;90.70
28845;DHT22;15976;47.938;7.758;2023-04-01T18:06:09;11.10;90.90
28845;DHT22;15976;47.938;7.758;2023-04-01T18:09:08;11.10;91.00
28845;DHT22;15976;47.938;7.758;2023-04-01T18:12:09;11.10;91.30
28845;DHT22;15976;47.938;7.758;2023-04-01T18:14:58;11.00;91.10
28845;DHT22;15976;47.938;7.758;2023-04-01T18:23:40;10.90;91.10
28845;DHT22;15976;47.938;7.758;2023-04-01T18:26:31;10.80;91.20
28845;DHT22;15976;47.938;7.758;2023-04-01T18:31:53;10.80;91.30
28845;DHT22;15976;47.938;7.758;2023-04-01T18:37:31;10.80;91.20
28845;DHT22;15976;47.938;7.758;2023-04-01T18:40:04;10.80;91.10
28845;DHT22;15976;47.938;7.758;2023-04-01T18:43:16;10.80;91.10
28845;DHT22;15976;47.938;7.758;2023-04-01T18:45:54;10.80;90.80
28845;DHT22;15976;47.938;7.758;2023-04-01T18:51:14;10.90;90.50
28845;DHT22;15976;47.938;7.758;2023-04-01T18:54:00;10.90;90.40
28845;DHT22;15976;47.938;7.758;2023-04-01T18:56:37;10.80;90.20
28845;DHT22;15976;47.938;7.758;2023-04-01T18:59:29;10.80;90.30
28845;DHT22;15976;47.938;7.758;2023-04-01T19:07:54;10.70;88.90
28845;DHT22;15976;47.938;7.758;2023-04-01T19:10:30;10.60;88.50
28845;DHT22;15976;47.938;7.758;2023-04-01T19:13:07;10.60;88.10
28845;DHT22;15976;47.938;7.758;2023-04-01T19:27:16;10.50;86.50
28845;DHT22;15976;47.938;7.758;2023-04-01T19:29:55;10.50;86.20
28845;DHT22;15976;47.938;7.758;2023-04-01T19:35:42;10.40;85.40
28845;DHT22;15976;47.938;7.758;2023-04-01T19:38:28;10.40;84.60
28845;DHT22;15976;47.938;7.758;2023-04-01T19:46:33;10.40;82.20
28845;DHT22;15976;47.938;7.758;2023-04-01T19:49:20;10.40;81.50
28845;DHT22;15976;47.938;7.758;2023-04-01T19:54:35;10.40;80.50
28845;DHT22;15976;47.938;7.758;2023-04-01T19:57:32;10.30;79.70
28845;DHT22;15976;47.938;7.758;2023-04-01T20:00:22;10.30;79.10
28845;DHT22;15976;47.938;7.758;2023-04-01T20:06:01;10.30;78.30
28845;DHT22;15976;47.938;7.758;2023-04-01T20:14:01;10.30;77.40
28845;DHT22;15976;47.938;7.758;2023-04-01T20:17:23;10.30;77.50
28845;DHT22;15976;47.938;7.758;2023-04-01T20:19:45;10.20;77.10
28845;DHT22;15976;47.938;7.758;2023-04-01T20:22:31;10.20;77.00
28845;DHT22;15976;47.938;7.758;2023-04-01T20:27:45;10.30;76.80
28845;DHT22;15976;47.938;7.758;2023-04-01T20:33:37;10.40;76.50
28845;DHT22;15976;47.938;7.758;2023-04-01T20:53:05;10.60;75.50
28845;DHT22;15976;47.938;7.758;2023-04-01T21:07:24;10.60;76.00
28845;DHT22;15976;47.938;7.758;2023-04-01T21:09:55;10.60;75.90
28845;DHT22;15976;47.938;7.758;2023-04-01T21:28:20;10.80;75.10
28845;DHT22;15976;47.938;7.758;2023-04-01T21:30:54;10.80;74.90
28845;DHT22;15976;47.938;7.758;2023-04-01T22:10:10;10.50;76.10
28845;DHT22;15976;47.938;7.758;2023-04-01T22:12:57;10.40;76.20
28845;DHT22;15976;47.938;7.758;2023-04-01T22:19:10;10.30;76.50
28845;DHT22;15976;47.938;7.758;2023-04-01T22:25:16;10.30;76.90
28845;DHT22;15976;47.938;7.758;2023-04-01T22:27:52;10.30;77.00
28845;DHT22;15976;47.938;7.758;2023-04-01T22:31:02;10.30;77.00
28845;DHT22;15976;47.938;7.758;2023-04-01T22:33:51;10.30;76.90
28845;DHT22;15976;47.938;7.758;2023-04-01T22:44:39;10.30;76.90
28845;DHT22;15976;47.938;7.758;2023-04-01T22:49:50;10.30;77.10
28845;DHT22;15976;47.938;7.758;2023-04-01T22:54:56;10.30;77.20
28845;DHT22;15976;47.938;7.758;2023-04-01T22:57:51;10.30;77.30
28845;DHT22;15976;47.938;7.758;2023-04-01T23:00:35;10.30;77.40
28845;DHT22;15976;47.938;7.758;2023-04-01T23:03:22;10.30;77.30
28845;DHT22;15976;47.938;7.758;2023-04-01T23:05:53;10.30;77.40
28845;DHT22;15976;47.938;7.758;2023-04-01T23:17:09;10.40;77.50
28845;DHT22;15976;47.938;7.758;2023-04-01T23:36:10;10.40;77.80
28845;DHT22;15976;47.938;7.758;2023-04-01T23:38:39;10.40;77.90
28845;DHT22;15976;47.938;7.758;2023-04-01T23:41:26;10.40;77.90
28845;DHT22;15976;47.938;7.758;2023-04-01T23:44:01;10.40;78.00
28845;DHT22;15976;47.938;7.758;2023-04-01T23:46:30;10.40;78.00
28845;DHT22;15976;47.938;7.758;2023-04-01T23:48:59;10.40;78.00
28845;DHT22;15976;47.938;7.758;2023-04-01T23:51:29;10.40;78.00
28845;DHT22;15976;47.938;7.758;2023-04-01T23:54:11;10.40;78.10
28845;DHT22;15976;47.938;7.758;2023-04-01T23:56:53;10.40;78.20
